Bath, New Hampshire
Current Conditions -  °F | °C
As of 10:52 AM on Friday 19 Dec 2014 (Local Time) from KHIE Reporting Station
Light Snow Light Snow  
Wind Chill: 19°   Ceiling: 1500
Heat Index: 26°   Visibility: 9mi
Dew Point: 20°   Wind: 6mph
Humidity: 78%   Direction: 10°N
Pressure: 29.97"   Gusts: NA
Location:  44.17°N, 71.97°W
Report Text: KHIE 191552Z AUTO 01005KT 9SM -SN BKN015 OVC020 M03/M07 A2997 RMK AO2 SNB33 SLP164 P0000 T10331067
Loading
Personal Weather Stations






























Interactive Weather Map New forecast layout! Learn more

10-Day Weather Forecast

Advertisements
Track Severe Weather on mobile